• Join FlightAware (Why Join?)
  • Login
  • US Flag 
09:31AM EDT


 

Airport Tracker/Info


-or-


 

Live Flight TrackerFlight Track Log ✈ N5191R ✈ 25.08.2013 ✈ KRGK - KCKN

Flight Track Log - Related Links

Times and Time Zones

All times are in EDT time to prevent confusion due to time zone crossing. See the N5191R flight status page for this flight to view local times or setup timezone preferences in your user account.

Time Position Orientation Groundspeed Altitude Reporting Facility
EDT Latitude Longitude Course Direction KTS MPH feet Rate Location/Type
02:47PM 44.6000 -92.5333 360° North 67 77 1,700  Level Minneapolis TRACON
02:48PM 44.6167 -92.5333 360° North 93 107 2,300 660 Climbing Minneapolis TRACON
02:49PM 44.6372 -92.5278 11° North 98 113 2,900 360 Climbing Minneapolis Center
02:50PM 44.6658 -92.5175 14° North 105 121 3,000  Climbing Minneapolis Center
02:51PM 44.7003 -92.5094 North 123 142 3,000  Level Minneapolis Center
02:52PM 44.7386 -92.5178 351° North 119 137 3,000 240 Level Minneapolis Center
02:53PM 44.7678 -92.5211 355° North 108 124 3,500 420 Climbing Minneapolis Center
02:54PM 44.7958 -92.5222 358° North 102 117 3,900 360 Climbing Minneapolis Center
02:55PM 44.8225 -92.5322 345° North 100 115 4,300 180 Climbing Minneapolis Center
02:56PM 44.8503 -92.5461 340° North 105 121 4,300 -120 Level Minneapolis Center
02:57PM 44.8722 -92.5744 318° Northwest 110 127 4,100 -240 Descending Minneapolis Center
02:58PM 44.8972 -92.6067 318° Northwest 101 116 3,900 -60 Descending Minneapolis Center
02:59PM 44.9186 -92.6333 319° Northwest 103 119 4,000  Climbing Minneapolis Center
03:00PM 44.9383 -92.6586 318° Northwest 97 112 4,000 -120 Level Minneapolis Center
03:01PM 44.9603 -92.6867 318° Northwest 105 121 3,800 -180 Descending Minneapolis Center
03:02PM 44.9819 -92.7117 321° Northwest 102 117 3,700  Descending Minneapolis Center
03:03PM 45.0028 -92.7414 315° West 91 105 3,900 60 Climbing Minneapolis Center
03:04PM 45.0231 -92.7664 319° Northwest 95 109 3,900  Level Minneapolis Center
03:05PM 45.0433 -92.7928 317° Northwest 99 114 3,900  Level Minneapolis Center
03:06PM 45.0661 -92.8194 320° Northwest 105 121 3,900  Level Minneapolis Center
03:07PM 45.0883 -92.8478 318° Northwest 108 124 3,900  Level Minneapolis Center
03:08PM 45.1094 -92.8744 318° Northwest 104 120 4,000 -60 Climbing Minneapolis Center
03:09PM 45.1347 -92.9078 317° Northwest 103 119 3,800 -120 Descending Minneapolis Center
03:10PM 45.1572 -92.9358 319° Northwest 108 124 3,800 -240 Level Minneapolis Center
03:11PM 45.1819 -92.9664 319° Northwest 117 135 3,300 -180 Descending Minneapolis Center
03:13PM 45.2064 -92.9956 320° Northwest 115 132 3,500 240 Climbing Minneapolis Center
03:14PM 45.2250 -93.0222 315° West 99 114 3,900 240 Climbing Minneapolis Center
03:15PM 45.2489 -93.0519 319° Northwest 96 110 4,000  Climbing Minneapolis Center
03:16PM 45.2692 -93.0786 317° Northwest 99 114 3,900  Descending Minneapolis Center
03:17PM 45.2906 -93.1056 318° Northwest 102 117 4,000  Climbing Minneapolis Center
03:18PM 45.3125 -93.1342 317° Northwest 106 122 4,000 -60 Level Minneapolis Center
03:19PM 45.3356 -93.1622 319° Northwest 110 127 3,900  Descending Minneapolis Center
03:20PM 45.3581 -93.1908 318° Northwest 109 125 4,000  Climbing Minneapolis Center
03:21PM 45.3819 -93.2239 316° Northwest 103 119 3,900 -60 Descending Minneapolis Center
03:22PM 45.4044 -93.2519 319° Northwest 107 123 3,900  Level Minneapolis Center
03:23PM 45.4264 -93.2789 319° Northwest 107 123 3,900  Level Minneapolis Center
03:24PM 45.4461 -93.3053 317° Northwest 98 113 4,000 180 Climbing Minneapolis Center
03:25PM 45.4647 -93.3306 316° Northwest 93 107 4,300 360 Climbing Minneapolis Center
03:26PM 45.4856 -93.3581 317° Northwest 86 99 4,800 420 Climbing Minneapolis Center
03:27PM 45.5039 -93.3800 320° Northwest 87 100 5,200 300 Climbing Minneapolis Center
03:28PM 45.5253 -93.4022 324° Northwest 93 107 5,500 240 Climbing Minneapolis Center
03:29PM 45.5442 -93.4244 321° Northwest 88 101 5,800 240 Climbing Minneapolis Center
03:30PM 45.5639 -93.4469 321° Northwest 90 104 6,000 60 Climbing Minneapolis Center
03:31PM 45.5850 -93.4717 321° Northwest 98 113 6,000  Level Minneapolis Center
03:32PM 45.6097 -93.5011 320° Northwest 96 110 6,000 -60 Level Minneapolis Center
03:33PM 45.6303 -93.5261 320° Northwest 97 112 5,900 -60 Descending Minneapolis Center
03:34PM 45.6517 -93.5500 322° Northwest 98 113 5,900  Level Minneapolis Center
03:35PM 45.6722 -93.5753 319° Northwest 98 113 5,900  Level Minneapolis Center
03:36PM 45.6914 -93.5978 321° Northwest 93 107 5,900  Level Minneapolis Center
03:37PM 45.7122 -93.6189 325° Northwest 92 106 5,900  Level Minneapolis Center
03:38PM 45.7347 -93.6483 318° Northwest 91 105 5,900  Level Minneapolis Center
03:39PM 45.7561 -93.6725 322° Northwest 94 108 6,000  Climbing Minneapolis Center
03:40PM 45.7750 -93.6992 315° West 95 109 6,000  Level Minneapolis Center
03:41PM 45.7950 -93.7231 320° Northwest 95 109 6,100  Climbing Minneapolis Center
03:43PM 45.8150 -93.7464 321° Northwest 93 107 6,100 -60 Level Minneapolis Center
03:44PM 45.8392 -93.7722 323° Northwest 91 105 6,000 -60 Descending Minneapolis Center
03:45PM 45.8597 -93.7967 320° Northwest 94 108 6,000  Level Minneapolis Center
03:46PM 45.8797 -93.8211 320° Northwest 94 108 6,100  Climbing Minneapolis Center
03:47PM 45.9008 -93.8467 320° Northwest 98 113 6,000 -60 Descending Minneapolis Center
03:48PM 45.9217 -93.8742 317° Northwest 100 115 6,000  Level Minneapolis Center
03:49PM 45.9425 -93.9003 319° Northwest 100 115 6,000  Level Minneapolis Center
03:50PM 45.9678 -93.9292 322° Northwest 98 113 6,000  Level Minneapolis Center
03:51PM 45.9894 -93.9536 322° Northwest 99 114 6,000 -60 Level Minneapolis Center
03:52PM 46.0111 -93.9797 320° Northwest 100 115 5,900 -60 Descending Minneapolis Center
03:53PM 46.0322 -94.0039 322° Northwest 100 115 5,900  Level Minneapolis Center
03:54PM 46.0517 -94.0331 314° West 98 113 5,900 -60 Level Minneapolis Center
03:55PM 46.0703 -94.0575 318° Northwest 95 109 5,800 -60 Descending Minneapolis Center
03:56PM 46.0919 -94.0886 315° West 92 106 5,800  Level Minneapolis Center
03:57PM 46.1097 -94.1122 317° Northwest 89 102 5,800 60 Level Minneapolis Center
03:58PM 46.1267 -94.1367 315° West 86 99 6,000 180 Climbing Minneapolis Center
03:59PM 46.1442 -94.1600 317° Northwest 86 99 6,200 60 Climbing Minneapolis Center
04:00PM 46.1625 -94.1856 316° Northwest 90 104 6,200  Level Minneapolis Center
04:01PM 46.1808 -94.2106 317° Northwest 91 105 6,200 -180 Level Minneapolis Center
04:02PM 46.2047 -94.2422 317° Northwest 95 109 5,900 -180 Descending Minneapolis Center
04:03PM 46.2211 -94.2661 315° West 93 107 5,900  Level Minneapolis Center
04:04PM 46.2394 -94.2928 315° West 93 107 5,900 -60 Level Minneapolis Center
04:05PM 46.2578 -94.3186 316° Northwest 93 107 5,800  Descending Minneapolis Center
04:06PM 46.2783 -94.3469 316° Northwest 89 102 6,000 120 Climbing Minneapolis Center
04:07PM 46.2956 -94.3708 316° Northwest 85 98 6,100  Climbing Minneapolis Center
04:08PM 46.3133 -94.3958 316° Northwest 87 100 6,000 -60 Descending Minneapolis Center
04:09PM 46.3314 -94.4197 318° Northwest 87 100 6,000  Level Minneapolis Center
04:10PM 46.3492 -94.4461 314° West 88 101 6,000  Level Minneapolis Center
04:11PM 46.3678 -94.4714 317° Northwest 90 104 6,000  Level Minneapolis Center
04:13PM 46.3897 -94.5022 316° Northwest 91 105 6,000  Level Minneapolis Center
04:14PM 46.4072 -94.5272 315° West 91 105 6,100  Climbing Minneapolis Center
04:15PM 46.4253 -94.5522 316° Northwest 90 104 6,000 -60 Descending Minneapolis Center
04:16PM 46.4417 -94.5772 314° West 89 102 6,000  Level Minneapolis Center
04:17PM 46.4608 -94.6011 319° Northwest 89 102 6,000  Level Minneapolis Center
04:18PM 46.4808 -94.6322 313° West 89 102 6,000  Level Minneapolis Center
04:19PM 46.4994 -94.6575 317° Northwest 90 104 6,100  Climbing Minneapolis Center
04:20PM 46.5175 -94.6844 314° West 91 105 6,100 -60 Level Minneapolis Center
04:21PM 46.5358 -94.7100 316° Northwest 91 105 6,000 -60 Descending Minneapolis Center
04:22PM 46.5542 -94.7369 315° West 92 106 6,000  Level Minneapolis Center
04:23PM 46.5733 -94.7625 317° Northwest 93 107 6,100 60 Climbing Minneapolis Center
04:24PM 46.5956 -94.7939 316° Northwest 93 107 6,200  Climbing Minneapolis Center
04:25PM 46.6147 -94.8203 317° Northwest 94 108 6,200 -60 Level Minneapolis Center
04:26PM 46.6333 -94.8481 314° West 94 108 6,100 -120 Descending Minneapolis Center
04:27PM 46.6525 -94.8767 314° West 96 110 6,000 -60 Descending Minneapolis Center
04:28PM 46.6728 -94.9042 317° Northwest 97 112 6,000 -60 Level Minneapolis Center
04:29PM 46.6936 -94.9336 316° Northwest 100 115 5,900  Descending Minneapolis Center
04:30PM 46.7158 -94.9653 316° Northwest 99 114 6,000 60 Climbing Minneapolis Center
04:31PM 46.7347 -94.9922 316° Northwest 97 112 6,100  Climbing Minneapolis Center
04:32PM 46.7539 -95.0192 316° Northwest 96 110 6,100  Level Minneapolis Center
04:33PM 46.7731 -95.0469 315° West 97 112 6,100  Level Minneapolis Center
04:34PM 46.7897 -95.0725 314° West 94 108 6,100  Level Minneapolis Center
04:35PM 46.8086 -95.0989 316° Northwest 93 107 6,100  Level Minneapolis Center
04:36PM 46.8308 -95.1303 316° Northwest 93 107 6,100  Level Minneapolis Center
04:37PM 46.8494 -95.1558 317° Northwest 93 107 6,100  Level Minneapolis Center
04:38PM 46.8672 -95.1822 315° West 92 106 6,200  Climbing Minneapolis Center
04:39PM 46.8869 -95.2103 316° Northwest 94 108 6,200 -60 Level Minneapolis Center
04:40PM 46.9061 -95.2400 313° West 97 112 6,100  Descending Minneapolis Center
04:42PM 46.9262 -95.2683 316° Northwest  Level FlightAware Approximate
04:43PM 46.9514 -95.3033 316° Northwest 100 115 6,200  Level Minneapolis Center
04:44PM 46.9711 -95.3325 315° West 101 116 6,100 -120 Descending Minneapolis Center
04:45PM 46.9919 -95.3617 316° Northwest 102 117 6,000 -60 Descending Minneapolis Center
04:46PM 47.0119 -95.3911 315° West 102 117 6,000  Level Minneapolis Center
04:47PM 47.0333 -95.4225 315° West 104 120 6,100  Climbing Minneapolis Center
04:48PM 47.0542 -95.4528 315° West 106 122 6,000 -120 Descending Minneapolis Center
04:49PM 47.0814 -95.4878 319° Northwest 106 122 5,900  Descending Minneapolis Center
04:50PM 47.1033 -95.5189 316° Northwest 105 121 6,000  Climbing Minneapolis Center
04:51PM 47.1244 -95.5511 314° West 106 122 6,000  Level Minneapolis Center
04:52PM 47.1486 -95.5864 315° West 103 119 6,000  Level Minneapolis Center
04:53PM 47.1697 -95.6169 315° West 103 119 6,000  Level Minneapolis Center
04:54PM 47.1914 -95.6483 315° West 103 119 6,100  Climbing Minneapolis Center
04:55PM 47.2133 -95.6794 316° Northwest 105 121 6,100  Level Minneapolis Center
04:56PM 47.2325 -95.7067 316° Northwest 102 117 6,200  Climbing Minneapolis Center
04:57PM 47.2539 -95.7383 315° West 104 120 6,200  Level Minneapolis Center
04:58PM 47.2722 -95.7683 312° West 105 121 6,200 -60 Level Minneapolis Center
04:59PM 47.2928 -95.7986 315° West 105 121 6,100 -60 Descending Minneapolis Center
05:00PM 47.3175 -95.8311 318° Northwest 108 124 6,100  Level Minneapolis Center
05:01PM 47.3375 -95.8611 315° West 107 123 6,100  Level Minneapolis Center
05:02PM 47.3617 -95.8958 316° Northwest 101 116 6,100  Level Minneapolis Center
05:03PM 47.3822 -95.9272 314° West 102 117 6,100 -60 Level Minneapolis Center
05:04PM 47.4022 -95.9564 315° West 105 121 6,000 -60 Descending Minneapolis Center
05:06PM 47.4231 -95.9883 314° West 104 120 6,000 -60 Level Minneapolis Center
05:07PM 47.4458 -96.0192 318° Northwest 106 122 5,900 -120 Descending Minneapolis Center
05:08PM 47.4678 -96.0519 315° West 107 123 5,800 -120 Descending Minneapolis Center
05:09PM 47.4889 -96.0847 314° West 106 122 5,700 -60 Descending Minneapolis Center
05:10PM 47.5111 -96.1106 322° Northwest 104 120 5,700 120 Level Minneapolis Center
05:10PM 47.5222 -96.1300 310° West 102 117 5,900 180 Climbing Minneapolis Center
05:11PM 47.5281 -96.1453 299° West 106 122 5,900 60 Level Minneapolis Center
05:11PM 47.5400 -96.1703 305° West 93 107 6,000 -180 Climbing Minneapolis Center
05:12PM 47.5614 -96.2006 316° Northwest 99 114 5,600 -420 Descending Minneapolis Center
05:13PM 47.5744 -96.2322 301° West 104 120 5,300 -420 Descending Minneapolis Center
05:14PM 47.5983 -96.2683 314° West 108 124 4,800 -480 Descending Minneapolis Center
05:15PM 47.6197 -96.2986 316° Northwest 110 127 4,300 -600 Descending Minneapolis Center
05:17PM 47.6411 -96.3289 316° Northwest 103 119 3,700 -600 Descending Minneapolis Center
05:19PM 47.6764 -96.3632 341° North  Level FlightAware Approximate
05:26PM 47.8044 -96.5733 315° West  Level FlightAware Approximate
05:27PM 47.8237 -96.6022 315° West  Level FlightAware Approximate